sensor_id;sensor_type;location;lat;lon;timestamp;temperature;humidity
2929;DHT22;1474;51.460;7.150;2024-03-02T07:15:23;8.90;92.80
2929;DHT22;1474;51.460;7.150;2024-03-02T07:18:09;8.90;91.30
2929;DHT22;1474;51.460;7.150;2024-03-02T07:20:35;8.80;90.80
2929;DHT22;1474;51.460;7.150;2024-03-02T07:23:00;8.70;90.60
2929;DHT22;1474;51.460;7.150;2024-03-02T07:25:26;8.70;90.90
2929;DHT22;1474;51.460;7.150;2024-03-02T07:27:52;8.80;90.90
2929;DHT22;1474;51.460;7.150;2024-03-02T13:48:59;15.60;70.80
2929;DHT22;1474;51.460;7.150;2024-03-02T13:51:25;15.40;71.80
2929;DHT22;1474;51.460;7.150;2024-03-02T13:53:51;15.30;71.90
2929;DHT22;1474;51.460;7.150;2024-03-02T13:56:16;15.20;71.50
2929;DHT22;1474;51.460;7.150;2024-03-02T13:58:43;15.20;71.30
2929;DHT22;1474;51.460;7.150;2024-03-02T14:01:09;15.20;72.20
2929;DHT22;1474;51.460;7.150;2024-03-02T14:03:35;15.10;71.70
2929;DHT22;1474;51.460;7.150;2024-03-02T14:06:00;15.10;73.20
2929;DHT22;1474;51.460;7.150;2024-03-02T14:08:26;15.10;73.40
2929;DHT22;1474;51.460;7.150;2024-03-02T14:10:52;15.00;72.50
2929;DHT22;1474;51.460;7.150;2024-03-02T14:13:18;15.00;73.10
2929;DHT22;1474;51.460;7.150;2024-03-02T14:15:44;15.00;75.50
2929;DHT22;1474;51.460;7.150;2024-03-02T14:18:09;15.00;74.60
2929;DHT22;1474;51.460;7.150;2024-03-02T14:20:36;15.00;71.30
2929;DHT22;1474;51.460;7.150;2024-03-02T14:23:02;14.90;74.00
2929;DHT22;1474;51.460;7.150;2024-03-02T14:25:29;15.00;74.40
2929;DHT22;1474;51.460;7.150;2024-03-02T14:27:58;15.00;74.30
2929;DHT22;1474;51.460;7.150;2024-03-02T14:30:24;15.10;75.10
2929;DHT22;1474;51.460;7.150;2024-03-02T14:32:50;15.20;75.10
2929;DHT22;1474;51.460;7.150;2024-03-02T14:35:16;15.30;75.60
2929;DHT22;1474;51.460;7.150;2024-03-02T14:37:42;15.50;76.20
2929;DHT22;1474;51.460;7.150;2024-03-02T14:40:08;15.50;75.00
2929;DHT22;1474;51.460;7.150;2024-03-02T14:42:35;15.60;75.10
2929;DHT22;1474;51.460;7.150;2024-03-02T14:45:01;15.60;75.20
2929;DHT22;1474;51.460;7.150;2024-03-02T14:47:32;15.50;75.00
2929;DHT22;1474;51.460;7.150;2024-03-02T14:49:59;15.50;75.50
2929;DHT22;1474;51.460;7.150;2024-03-02T14:52:25;15.60;75.10
2929;DHT22;1474;51.460;7.150;2024-03-02T14:54:50;15.50;74.50
2929;DHT22;1474;51.460;7.150;2024-03-02T14:57:16;15.40;75.00
2929;DHT22;1474;51.460;7.150;2024-03-02T14:59:42;15.30;75.90
2929;DHT22;1474;51.460;7.150;2024-03-02T15:02:08;15.30;76.40
2929;DHT22;1474;51.460;7.150;2024-03-02T15:04:34;15.30;76.10
2929;DHT22;1474;51.460;7.150;2024-03-02T15:06:59;15.40;76.60
2929;DHT22;1474;51.460;7.150;2024-03-02T15:09:25;15.30;76.60
2929;DHT22;1474;51.460;7.150;2024-03-02T15:11:51;15.30;76.50
2929;DHT22;1474;51.460;7.150;2024-03-02T15:14:16;15.30;77.30
2929;DHT22;1474;51.460;7.150;2024-03-02T15:16:42;15.20;77.80
2929;DHT22;1474;51.460;7.150;2024-03-02T15:19:08;15.10;79.40
2929;DHT22;1474;51.460;7.150;2024-03-02T15:21:33;15.10;78.70
2929;DHT22;1474;51.460;7.150;2024-03-02T15:23:59;15.10;79.00
2929;DHT22;1474;51.460;7.150;2024-03-02T15:26:25;15.10;79.70
2929;DHT22;1474;51.460;7.150;2024-03-02T15:28:51;14.90;79.50
2929;DHT22;1474;51.460;7.150;2024-03-02T15:31:18;15.00;80.50
2929;DHT22;1474;51.460;7.150;2024-03-02T15:33:45;15.00;80.40
2929;DHT22;1474;51.460;7.150;2024-03-02T15:36:11;15.00;80.60
2929;DHT22;1474;51.460;7.150;2024-03-02T15:38:37;15.00;80.00
2929;DHT22;1474;51.460;7.150;2024-03-02T15:41:04;14.90;77.90
2929;DHT22;1474;51.460;7.150;2024-03-02T15:43:30;14.80;80.30
2929;DHT22;1474;51.460;7.150;2024-03-02T15:45:57;14.80;80.40
2929;DHT22;1474;51.460;7.150;2024-03-02T15:48:25;14.80;81.10
2929;DHT22;1474;51.460;7.150;2024-03-02T15:50:54;14.80;80.90
2929;DHT22;1474;51.460;7.150;2024-03-02T15:53:21;14.80;81.40
2929;DHT22;1474;51.460;7.150;2024-03-02T15:55:53;14.80;80.90
2929;DHT22;1474;51.460;7.150;2024-03-02T15:58:18;14.70;81.90
2929;DHT22;1474;51.460;7.150;2024-03-02T16:00:44;14.70;81.40
2929;DHT22;1474;51.460;7.150;2024-03-02T16:03:10;14.80;81.90
2929;DHT22;1474;51.460;7.150;2024-03-02T16:05:35;14.80;82.00
2929;DHT22;1474;51.460;7.150;2024-03-02T16:08:01;14.70;81.20
2929;DHT22;1474;51.460;7.150;2024-03-02T16:10:27;14.50;82.10
2929;DHT22;1474;51.460;7.150;2024-03-02T16:12:52;14.60;80.20
2929;DHT22;1474;51.460;7.150;2024-03-02T16:20:11;14.50;81.90
2929;DHT22;1474;51.460;7.150;2024-03-02T16:22:37;14.50;81.80
2929;DHT22;1474;51.460;7.150;2024-03-02T16:25:03;14.50;82.30
2929;DHT22;1474;51.460;7.150;2024-03-02T16:27:30;14.40;82.80
2929;DHT22;1474;51.460;7.150;2024-03-02T16:29:55;14.50;83.50
2929;DHT22;1474;51.460;7.150;2024-03-02T16:32:23;14.40;82.90
2929;DHT22;1474;51.460;7.150;2024-03-02T16:34:49;14.40;83.80
2929;DHT22;1474;51.460;7.150;2024-03-02T16:37:14;14.20;83.50
2929;DHT22;1474;51.460;7.150;2024-03-02T16:39:40;14.20;84.20
2929;DHT22;1474;51.460;7.150;2024-03-02T16:42:05;14.20;84.60
2929;DHT22;1474;51.460;7.150;2024-03-02T16:44:31;14.20;85.70
2929;DHT22;1474;51.460;7.150;2024-03-02T16:46:56;14.20;86.10
2929;DHT22;1474;51.460;7.150;2024-03-02T16:49:22;14.20;86.10
2929;DHT22;1474;51.460;7.150;2024-03-02T16:51:48;14.20;85.30
2929;DHT22;1474;51.460;7.150;2024-03-02T16:54:13;14.20;84.30
2929;DHT22;1474;51.460;7.150;2024-03-02T16:56:40;14.20;84.30
2929;DHT22;1474;51.460;7.150;2024-03-02T16:59:06;14.10;84.50
2929;DHT22;1474;51.460;7.150;2024-03-02T17:01:32;14.10;84.60
2929;DHT22;1474;51.460;7.150;2024-03-02T17:03:58;14.10;84.40
2929;DHT22;1474;51.460;7.150;2024-03-02T17:06:23;14.20;84.60
2929;DHT22;1474;51.460;7.150;2024-03-02T17:08:49;14.30;84.80
2929;DHT22;1474;51.460;7.150;2024-03-02T17:11:14;14.30;84.00
2929;DHT22;1474;51.460;7.150;2024-03-02T17:13:40;14.20;84.40
2929;DHT22;1474;51.460;7.150;2024-03-02T17:16:06;14.20;84.30
2929;DHT22;1474;51.460;7.150;2024-03-02T17:18:32;14.10;84.20
2929;DHT22;1474;51.460;7.150;2024-03-02T17:20:57;14.10;84.80
2929;DHT22;1474;51.460;7.150;2024-03-02T17:23:23;14.10;85.30
2929;DHT22;1474;51.460;7.150;2024-03-02T17:25:49;14.00;84.80
2929;DHT22;1474;51.460;7.150;2024-03-02T17:28:24;14.00;85.00
2929;DHT22;1474;51.460;7.150;2024-03-02T17:30:54;14.00;85.90
2929;DHT22;1474;51.460;7.150;2024-03-02T17:33:20;14.00;84.80
2929;DHT22;1474;51.460;7.150;2024-03-02T17:35:46;13.90;84.90
2929;DHT22;1474;51.460;7.150;2024-03-02T17:38:16;13.90;85.50
2929;DHT22;1474;51.460;7.150;2024-03-02T17:40:42;13.90;84.90
2929;DHT22;1474;51.460;7.150;2024-03-02T17:43:11;13.90;84.70
2929;DHT22;1474;51.460;7.150;2024-03-02T17:45:40;13.70;84.30
2929;DHT22;1474;51.460;7.150;2024-03-02T17:48:09;13.70;84.60
2929;DHT22;1474;51.460;7.150;2024-03-02T17:50:37;13.60;85.10
2929;DHT22;1474;51.460;7.150;2024-03-02T17:53:02;13.70;84.90
2929;DHT22;1474;51.460;7.150;2024-03-02T17:55:28;13.70;85.20
2929;DHT22;1474;51.460;7.150;2024-03-02T17:57:54;13.70;85.20
2929;DHT22;1474;51.460;7.150;2024-03-02T18:00:20;13.60;85.40
2929;DHT22;1474;51.460;7.150;2024-03-02T18:02:46;13.60;85.40
2929;DHT22;1474;51.460;7.150;2024-03-02T18:05:13;13.60;85.70
2929;DHT22;1474;51.460;7.150;2024-03-02T18:07:38;13.60;85.30
2929;DHT22;1474;51.460;7.150;2024-03-02T18:10:05;13.60;85.50
2929;DHT22;1474;51.460;7.150;2024-03-02T18:12:31;13.60;85.90
2929;DHT22;1474;51.460;7.150;2024-03-02T18:14:57;13.50;85.90
2929;DHT22;1474;51.460;7.150;2024-03-02T18:17:22;13.50;86.70
2929;DHT22;1474;51.460;7.150;2024-03-02T18:19:52;13.50;86.50
2929;DHT22;1474;51.460;7.150;2024-03-02T18:22:18;13.50;86.70
2929;DHT22;1474;51.460;7.150;2024-03-02T18:24:44;13.50;87.00
2929;DHT22;1474;51.460;7.150;2024-03-02T18:27:11;13.50;87.40
2929;DHT22;1474;51.460;7.150;2024-03-02T18:29:37;13.50;87.30
2929;DHT22;1474;51.460;7.150;2024-03-02T18:32:03;13.40;88.00
2929;DHT22;1474;51.460;7.150;2024-03-02T18:34:29;13.40;88.80
2929;DHT22;1474;51.460;7.150;2024-03-02T18:36:54;13.40;88.40
2929;DHT22;1474;51.460;7.150;2024-03-02T18:39:20;13.40;88.50
2929;DHT22;1474;51.460;7.150;2024-03-02T18:41:46;13.40;89.00
2929;DHT22;1474;51.460;7.150;2024-03-02T18:44:11;13.30;89.50
2929;DHT22;1474;51.460;7.150;2024-03-02T18:46:37;13.40;89.30
2929;DHT22;1474;51.460;7.150;2024-03-02T18:49:03;13.30;90.00
2929;DHT22;1474;51.460;7.150;2024-03-02T18:51:28;13.30;90.10
2929;DHT22;1474;51.460;7.150;2024-03-02T18:53:54;13.20;90.10
2929;DHT22;1474;51.460;7.150;2024-03-02T18:56:19;13.30;90.20
2929;DHT22;1474;51.460;7.150;2024-03-02T18:58:45;13.20;90.10
2929;DHT22;1474;51.460;7.150;2024-03-02T19:01:10;13.30;90.10
2929;DHT22;1474;51.460;7.150;2024-03-02T19:03:36;13.30;90.40
2929;DHT22;1474;51.460;7.150;2024-03-02T19:06:02;13.30;90.60
2929;DHT22;1474;51.460;7.150;2024-03-02T19:08:28;13.20;90.10
2929;DHT22;1474;51.460;7.150;2024-03-02T19:10:54;13.20;90.30
2929;DHT22;1474;51.460;7.150;2024-03-02T19:13:20;13.20;90.70
2929;DHT22;1474;51.460;7.150;2024-03-02T19:15:45;13.20;90.90
2929;DHT22;1474;51.460;7.150;2024-03-02T19:18:11;13.20;90.90
2929;DHT22;1474;51.460;7.150;2024-03-02T19:20:37;13.20;91.00
2929;DHT22;1474;51.460;7.150;2024-03-02T19:23:03;13.20;91.10
2929;DHT22;1474;51.460;7.150;2024-03-02T19:25:29;13.20;91.10
2929;DHT22;1474;51.460;7.150;2024-03-02T19:27:54;13.10;91.10
2929;DHT22;1474;51.460;7.150;2024-03-02T19:30:20;13.10;91.60
2929;DHT22;1474;51.460;7.150;2024-03-02T19:32:46;13.20;91.20
2929;DHT22;1474;51.460;7.150;2024-03-02T19:35:11;13.10;91.10
2929;DHT22;1474;51.460;7.150;2024-03-02T19:37:40;13.10;91.30
2929;DHT22;1474;51.460;7.150;2024-03-02T19:40:06;13.10;91.50
2929;DHT22;1474;51.460;7.150;2024-03-02T19:42:32;13.00;91.30
2929;DHT22;1474;51.460;7.150;2024-03-02T19:44:57;13.00;91.60
2929;DHT22;1474;51.460;7.150;2024-03-02T19:47:23;13.00;91.80
2929;DHT22;1474;51.460;7.150;2024-03-02T19:49:49;13.00;91.80
2929;DHT22;1474;51.460;7.150;2024-03-02T19:52:14;13.00;91.80
2929;DHT22;1474;51.460;7.150;2024-03-02T19:54:40;12.90;92.20
2929;DHT22;1474;51.460;7.150;2024-03-02T19:57:06;12.90;92.10
2929;DHT22;1474;51.460;7.150;2024-03-02T19:59:31;13.00;92.20
2929;DHT22;1474;51.460;7.150;2024-03-02T20:01:58;13.00;92.20
2929;DHT22;1474;51.460;7.150;2024-03-02T20:04:27;13.00;92.30
2929;DHT22;1474;51.460;7.150;2024-03-02T20:06:54;13.00;92.30
2929;DHT22;1474;51.460;7.150;2024-03-02T20:09:20;12.90;92.30
2929;DHT22;1474;51.460;7.150;2024-03-02T20:11:46;12.90;92.50
2929;DHT22;1474;51.460;7.150;2024-03-02T20:14:13;12.90;92.50
2929;DHT22;1474;51.460;7.150;2024-03-02T20:16:45;12.90;92.60
2929;DHT22;1474;51.460;7.150;2024-03-02T20:19:11;12.80;92.50
2929;DHT22;1474;51.460;7.150;2024-03-02T20:21:37;12.80;92.60
2929;DHT22;1474;51.460;7.150;2024-03-02T20:24:03;12.90;92.80
2929;DHT22;1474;51.460;7.150;2024-03-02T20:26:28;12.80;92.60
2929;DHT22;1474;51.460;7.150;2024-03-02T20:28:54;12.80;92.70
2929;DHT22;1474;51.460;7.150;2024-03-02T20:31:20;12.80;92.80
2929;DHT22;1474;51.460;7.150;2024-03-02T20:33:46;12.80;92.90
2929;DHT22;1474;51.460;7.150;2024-03-02T20:36:15;12.80;93.00
2929;DHT22;1474;51.460;7.150;2024-03-02T20:46:16;12.70;95.20
2929;DHT22;1474;51.460;7.150;2024-03-02T23:06:44;12.10;98.70
2929;DHT22;1474;51.460;7.150;2024-03-02T23:09:29;12.20;97.90
2929;DHT22;1474;51.460;7.150;2024-03-02T23:12:13;12.20;98.20
2929;DHT22;1474;51.460;7.150;2024-03-02T23:17:42;12.10;98.90
2929;DHT22;1474;51.460;7.150;2024-03-02T23:20:26;12.30;99.30
